Main page
METAR-TAF:

METAR-TAF

Airports :

Orange-Caritat Air Base

Orange, France

latitude: 44-08N, longitude: 004-50E, elevation: 60 m

Current weather observation

The report was made 23 minutes ago, at 21:30 UTC
Wind 7 kt from the North/Northwest, varying between West/Northwest and North
Temperature 6°C
Humidity 65%
Pressure 1022 hPa
Visibility 10 km or more
no clouds below 1500 m and no cumulonimbus

METAR: LFMO 102130Z AUTO 33007KT 300V360 CAVOK 06/M00 Q1022 NOSIG

Time: 22:53 (21:53 UTC)

Forecast

The report was made 1 hour and 53 minutes ago, at 20:00 UTC
Forecast valid from 10 at 21 UTC to 11 at 21 UTC
Wind 15 kt from the North with gusts up to 25 kt
Visibility 10 km or more
no clouds below 1500 m and no cumulonimbus
Becoming
from 10 at 22 UTC to 10 at 24 UTC
Wind 2 kt from variable directions
Becoming
from 11 at 13 UTC to 11 at 15 UTC
rain

TAF: LFMO 102000Z 1021/1121 36015G25KT CAVOK BECMG 1022/1024 VRB02KT BECMG 1113/1115 RA

Weather observations and forecasts of more than 4000 airports (METAR and TAF reports).

The available stations are represented by yellow and red dots on the map.

Hover mouse over dot to see the name of the station.

Then click to see weather observations and forecasts.

To change the map : click on the green buttons with a black cross to zoom in, on the green button with a dash to zoom out, or on the green arrows for adjacent maps.


METAR-TAF: